createdAt,value
2023-04-12T00:00:39.290Z,87.601
2023-04-12T00:01:38.762Z,87.673
2023-04-12T00:02:39.453Z,87.526
2023-04-12T00:03:39.990Z,87.645
2023-04-12T00:04:40.276Z,87.547
2023-04-12T00:05:39.073Z,87.597
2023-04-12T00:06:39.101Z,87.839
2023-04-12T00:07:39.762Z,87.891
2023-04-12T00:08:39.269Z,87.929
2023-04-12T00:09:38.833Z,87.822
2023-04-12T00:10:39.313Z,87.729
2023-04-12T00:11:38.931Z,87.881
2023-04-12T00:12:39.366Z,87.765
2023-04-12T00:13:38.723Z,87.780
2023-04-12T00:14:39.653Z,87.656
2023-04-12T00:15:39.314Z,87.570
2023-04-12T00:16:39.014Z,87.853
2023-04-12T00:17:39.623Z,87.614
2023-04-12T00:19:40.076Z,87.631
2023-04-12T00:20:39.614Z,87.626
2023-04-12T00:21:39.072Z,87.729
2023-04-12T00:22:39.597Z,87.715
2023-04-12T00:24:39.665Z,87.559
2023-04-12T00:25:39.143Z,87.500
2023-04-12T00:26:39.625Z,87.557
2023-04-12T00:27:39.214Z,87.618
2023-04-12T00:28:39.754Z,87.517
2023-04-12T00:29:39.229Z,87.317
2023-04-12T00:30:39.616Z,87.187
2023-04-12T00:31:39.337Z,87.240
2023-04-12T00:32:39.005Z,87.219
2023-04-12T00:34:39.004Z,87.027
2023-04-12T00:36:39.220Z,87.013
2023-04-12T00:37:39.729Z,87.025
2023-04-12T00:38:39.157Z,87.120
2023-04-12T00:39:39.616Z,86.988
2023-04-12T00:40:39.082Z,87.050
2023-04-12T00:41:39.590Z,86.943
2023-04-12T00:42:39.267Z,86.914
2023-04-12T00:43:39.740Z,86.851
2023-04-12T00:44:39.690Z,86.819
2023-04-12T00:46:39.070Z,86.893
2023-04-12T00:47:39.831Z,86.695
2023-04-12T00:48:39.432Z,86.578
2023-04-12T00:49:38.904Z,86.666
2023-04-12T00:50:39.361Z,86.609
2023-04-12T00:51:38.798Z,86.597
2023-04-12T00:52:39.301Z,86.567
2023-04-12T00:53:39.744Z,86.599
2023-04-12T00:54:38.784Z,86.403
2023-04-12T00:55:39.165Z,86.336
2023-04-12T00:56:39.676Z,86.367
2023-04-12T00:57:39.233Z,86.388
2023-04-12T00:58:39.669Z,86.391
2023-04-12T00:59:39.050Z,86.506
2023-04-12T01:00:39.663Z,86.550
2023-04-12T01:01:39.524Z,86.613
2023-04-12T01:02:39.696Z,86.561
2023-04-12T01:03:40.204Z,86.493
2023-04-12T01:04:39.638Z,86.567
2023-04-12T01:05:39.034Z,86.475
2023-04-12T01:06:39.437Z,86.384
2023-04-12T01:07:38.894Z,86.294
2023-04-12T01:08:39.444Z,86.327
2023-04-12T01:09:39.010Z,86.319
2023-04-12T01:10:39.428Z,86.411
2023-04-12T01:11:38.888Z,86.262
2023-04-12T01:12:39.376Z,86.023
2023-04-12T01:13:38.865Z,86.029
2023-04-12T01:14:39.037Z,86.069
2023-04-12T01:15:39.527Z,85.817
2023-04-12T01:16:39.144Z,85.808
2023-04-12T01:17:39.801Z,85.733
2023-04-12T01:18:39.549Z,85.808
2023-04-12T01:19:39.072Z,85.693
2023-04-12T01:20:39.532Z,85.667
2023-04-12T01:23:39.029Z,85.714
2023-04-12T01:24:39.038Z,85.520
2023-04-12T01:25:39.532Z,85.556
2023-04-12T01:26:39.581Z,85.455
2023-04-12T01:27:38.974Z,85.331
2023-04-12T01:28:39.454Z,85.489
2023-04-12T01:29:38.933Z,85.466
2023-04-12T01:30:39.557Z,85.514
2023-04-12T01:31:39.274Z,85.518
2023-04-12T01:33:39.723Z,85.335
2023-04-12T01:34:39.805Z,85.253
2023-04-12T01:35:39.321Z,85.192
2023-04-12T01:36:39.155Z,85.274
2023-04-12T01:37:39.651Z,85.279
2023-04-12T01:38:39.158Z,85.089
2023-04-12T01:39:38.739Z,85.211
2023-04-12T01:40:39.220Z,85.041
2023-04-12T01:41:39.785Z,85.154
2023-04-12T01:42:39.252Z,85.169
2023-04-12T01:43:39.036Z,85.182
2023-04-12T01:44:39.194Z,85.165
2023-04-12T01:45:39.748Z,85.194
2023-04-12T01:46:39.438Z,85.363
2023-04-12T01:47:38.894Z,85.230
2023-04-12T01:48:39.658Z,85.207
2023-04-12T01:49:39.153Z,85.094
2023-04-12T01:50:39.785Z,84.965
2023-04-12T01:51:39.289Z,85.033
2023-04-12T01:52:38.816Z,85.024
2023-04-12T01:53:39.245Z,85.104
2023-04-12T01:54:39.311Z,85.213
2023-04-12T01:57:39.361Z,85.230
2023-04-12T01:58:38.964Z,85.308
2023-04-12T01:59:39.424Z,85.255
2023-04-12T02:00:38.907Z,84.747
2023-04-12T02:01:39.539Z,84.745
2023-04-12T02:02:39.627Z,84.578
2023-04-12T02:03:39.902Z,84.579
2023-04-12T02:04:39.563Z,84.309
2023-04-12T02:07:39.069Z,84.143
2023-04-12T02:08:39.513Z,84.030
2023-04-12T02:09:39.179Z,84.381
2023-04-12T02:10:39.652Z,83.925
2023-04-12T02:11:39.112Z,83.891
2023-04-12T02:12:39.728Z,83.750
2023-04-12T02:13:39.206Z,83.670
2023-04-12T02:14:39.618Z,83.712
2023-04-12T02:15:39.080Z,83.414
2023-04-12T02:16:39.755Z,83.666
2023-04-12T02:17:39.436Z,82.863
2023-04-12T02:18:39.208Z,83.153
2023-04-12T02:19:39.820Z,83.170
2023-04-12T02:20:39.249Z,83.012
2023-04-12T02:21:39.861Z,83.323
2023-04-12T02:22:39.290Z,82.809
2023-04-12T02:23:39.329Z,82.720
2023-04-12T02:24:39.239Z,82.357
2023-04-12T02:25:39.854Z,82.529
2023-04-12T02:26:39.402Z,82.773
2023-04-12T02:27:39.019Z,82.952
2023-04-12T02:28:39.604Z,82.970
2023-04-12T02:29:39.052Z,82.724
2023-04-12T02:30:39.595Z,82.382
2023-04-12T02:32:38.978Z,82.375
2023-04-12T02:33:39.605Z,82.073
2023-04-12T02:34:39.079Z,82.071
2023-04-12T02:35:39.763Z,82.384
2023-04-12T02:36:39.781Z,82.285
2023-04-12T02:37:39.318Z,82.107
2023-04-12T02:40:39.898Z,82.123
2023-04-12T02:41:39.386Z,82.340
2023-04-12T02:42:40.354Z,82.201
2023-04-12T02:43:39.024Z,82.287
2023-04-12T02:44:38.902Z,82.186
2023-04-12T02:45:39.661Z,82.285
2023-04-12T02:46:39.461Z,82.205
2023-04-12T02:47:38.873Z,82.136
2023-04-12T02:48:39.572Z,82.338
2023-04-12T02:49:39.327Z,82.251
2023-04-12T02:51:39.833Z,82.203
2023-04-12T02:52:39.484Z,81.999
2023-04-12T02:53:38.953Z,82.203
2023-04-12T02:55:39.352Z,82.025
2023-04-12T02:56:38.824Z,81.997
2023-04-12T02:57:39.292Z,81.978
2023-04-12T02:58:38.958Z,82.060
2023-04-12T02:59:39.501Z,81.879
2023-04-12T03:00:39.009Z,81.888
2023-04-12T03:01:39.898Z,81.764
2023-04-12T03:02:39.072Z,81.819
2023-04-12T03:03:39.538Z,81.720
2023-04-12T03:04:39.596Z,81.678
2023-04-12T03:05:39.045Z,81.623
2023-04-12T03:06:38.820Z,81.594
2023-04-12T03:07:39.231Z,81.402
2023-04-12T03:08:39.099Z,81.713
2023-04-12T03:09:39.582Z,81.268
2023-04-12T03:10:39.054Z,81.308
2023-04-12T03:11:39.553Z,81.480
2023-04-12T03:12:39.030Z,81.411
2023-04-12T03:13:39.561Z,81.472
2023-04-12T03:14:38.901Z,81.497
2023-04-12T03:15:39.462Z,81.757
2023-04-12T03:16:39.114Z,81.852
2023-04-12T03:17:39.656Z,81.730
2023-04-12T03:18:39.470Z,82.212
2023-04-12T03:19:38.912Z,82.148
2023-04-12T03:20:39.456Z,81.736
2023-04-12T03:21:38.880Z,82.418
2023-04-12T03:22:39.405Z,82.266
2023-04-12T03:23:38.876Z,82.430
2023-04-12T03:24:38.898Z,82.218
2023-04-12T03:25:39.405Z,82.394
2023-04-12T03:26:38.788Z,82.058
2023-04-12T03:27:39.333Z,82.117
2023-04-12T03:28:38.799Z,82.239
2023-04-12T03:29:39.256Z,82.045
2023-04-12T03:30:38.748Z,81.814
2023-04-12T03:31:39.503Z,82.066
2023-04-12T03:33:39.768Z,81.802
2023-04-12T03:34:39.227Z,82.077
2023-04-12T03:35:38.830Z,82.077
2023-04-12T03:36:39.526Z,82.010
2023-04-12T03:38:39.717Z,81.823
2023-04-12T03:39:39.227Z,81.764
2023-04-12T03:40:39.616Z,81.593
2023-04-12T03:41:39.062Z,81.774
2023-04-12T03:42:44.588Z,81.169
2023-04-12T03:44:39.561Z,81.161
2023-04-12T03:45:38.997Z,81.419
2023-04-12T03:46:39.545Z,81.350
2023-04-12T03:47:39.449Z,81.188
2023-04-12T03:49:38.940Z,81.171
2023-04-12T03:51:43.201Z,80.959
2023-04-12T03:52:43.641Z,81.360
2023-04-12T03:53:43.059Z,81.161
2023-04-12T03:54:43.176Z,81.276
2023-04-12T03:55:43.625Z,81.148
2023-04-12T03:56:46.018Z,81.396
2023-04-12T03:57:42.785Z,81.053
2023-04-12T03:58:43.192Z,81.106
2023-04-12T03:59:43.612Z,81.171
2023-04-12T04:00:43.089Z,81.030
2023-04-12T04:01:43.709Z,81.179
2023-04-12T04:02:43.817Z,81.161
2023-04-12T04:03:44.871Z,81.268
2023-04-12T04:04:43.517Z,80.992
2023-04-12T04:05:43.215Z,80.967
2023-04-12T04:06:43.641Z,81.068
2023-04-12T04:07:43.048Z,81.192
2023-04-12T04:08:43.478Z,81.289
2023-04-12T04:09:42.967Z,81.007
2023-04-12T04:10:43.460Z,81.160
2023-04-12T04:11:42.973Z,80.959
2023-04-12T04:12:43.438Z,80.730
2023-04-12T04:13:42.825Z,80.866
2023-04-12T04:14:43.533Z,80.723
2023-04-12T04:15:42.950Z,80.601
2023-04-12T04:16:42.796Z,80.715
2023-04-12T04:17:43.422Z,80.816
2023-04-12T04:18:43.118Z,80.444
2023-04-12T04:19:43.572Z,80.702
2023-04-12T04:20:42.993Z,80.585
2023-04-12T04:21:43.393Z,80.604
2023-04-12T04:22:42.869Z,80.418
2023-04-12T04:23:43.313Z,80.280
2023-04-12T04:26:43.233Z,80.355
2023-04-12T04:27:43.826Z,80.339
2023-04-12T04:28:43.425Z,80.713
2023-04-12T04:29:42.852Z,80.883
2023-04-12T04:30:43.345Z,80.555
2023-04-12T04:32:43.842Z,80.839
2023-04-12T04:33:43.594Z,80.822
2023-04-12T04:34:43.390Z,80.706
2023-04-12T04:37:42.980Z,80.774
2023-04-12T04:38:43.385Z,80.688
2023-04-12T04:39:42.861Z,80.639
2023-04-12T04:40:43.285Z,80.637
2023-04-12T04:41:43.032Z,80.709
2023-04-12T04:42:43.577Z,80.765
2023-04-12T04:43:43.042Z,80.658
2023-04-12T04:44:43.707Z,80.446
2023-04-12T04:45:43.200Z,80.479
2023-04-12T04:47:43.416Z,80.385
2023-04-12T04:48:43.225Z,80.328
2023-04-12T04:49:43.712Z,80.334
2023-04-12T04:50:43.172Z,80.378
2023-04-12T04:51:43.639Z,80.372
2023-04-12T04:52:43.128Z,80.065
2023-04-12T04:53:43.581Z,80.173
2023-04-12T04:54:43.231Z,80.213
2023-04-12T04:56:43.283Z,80.151
2023-04-12T04:57:43.036Z,80.202
2023-04-12T04:58:43.485Z,80.185
2023-04-12T04:59:42.801Z,80.311
2023-04-12T05:00:43.366Z,80.189
2023-04-12T05:01:43.469Z,80.089
2023-04-12T05:02:43.182Z,80.072
2023-04-12T05:04:43.021Z,79.990
2023-04-12T05:05:43.651Z,80.004
2023-04-12T05:06:43.128Z,80.074
2023-04-12T05:07:43.584Z,80.084
2023-04-12T05:08:43.020Z,79.866
2023-04-12T05:09:43.081Z,79.986
2023-04-12T05:10:43.457Z,79.979
2023-04-12T05:11:42.885Z,79.889
2023-04-12T05:12:43.360Z,79.809
2023-04-12T05:13:42.779Z,79.912
2023-04-12T05:14:47.894Z,79.845
2023-04-12T05:16:44.544Z,79.929
2023-04-12T05:17:44.565Z,79.874
2023-04-12T05:18:44.365Z,79.809
2023-04-12T05:21:44.097Z,79.992
2023-04-12T05:22:44.549Z,79.916
2023-04-12T05:23:44.017Z,79.811
2023-04-12T05:24:44.418Z,79.910
2023-04-12T05:25:43.985Z,79.910
2023-04-12T05:26:44.516Z,79.939
2023-04-12T05:27:43.890Z,80.070
2023-04-12T05:28:44.337Z,80.055
2023-04-12T05:29:44.002Z,80.101
2023-04-12T05:30:44.649Z,80.147
2023-04-12T05:31:44.561Z,80.103
2023-04-12T05:33:44.818Z,80.122
2023-04-12T05:34:44.312Z,80.061
2023-04-12T05:35:44.772Z,79.994
2023-04-12T05:36:44.485Z,80.080
2023-04-12T05:37:43.882Z,79.977
2023-04-12T05:38:44.331Z,80.023
2023-04-12T05:40:44.475Z,80.101
2023-04-12T05:41:43.886Z,80.017
2023-04-12T05:42:44.454Z,79.931
2023-04-12T05:43:43.939Z,79.946
2023-04-12T05:44:44.412Z,79.962
2023-04-12T05:45:43.860Z,79.912
2023-04-12T05:46:44.760Z,79.992
2023-04-12T05:47:44.434Z,80.000
2023-04-12T05:48:44.099Z,79.822
2023-04-12T05:50:44.304Z,79.981
2023-04-12T05:51:43.773Z,80.152
2023-04-12T05:52:44.176Z,80.053
2023-04-12T05:53:44.684Z,80.086
2023-04-12T05:54:44.416Z,80.093
2023-04-12T05:56:44.432Z,80.017
2023-04-12T05:57:43.850Z,80.175
2023-04-12T05:58:44.348Z,80.284
2023-04-12T05:59:43.881Z,80.135
2023-04-12T06:00:44.382Z,80.059
2023-04-12T06:01:43.855Z,80.088
2023-04-12T06:02:45.010Z,80.036
2023-04-12T06:03:44.090Z,79.962
2023-04-12T06:04:53.115Z,79.885
2023-04-12T06:06:44.674Z,79.883
2023-04-12T06:07:44.171Z,79.992
2023-04-12T06:08:43.746Z,79.893
2023-04-12T06:09:44.597Z,80.570
2023-04-12T06:11:44.516Z,80.999
2023-04-12T06:12:43.907Z,81.276
2023-04-12T06:13:44.343Z,81.200
2023-04-12T06:14:43.785Z,81.392
2023-04-12T06:15:44.289Z,81.819
2023-04-12T06:17:44.605Z,82.258
2023-04-12T06:18:44.301Z,82.697
2023-04-12T06:19:44.557Z,82.741
2023-04-12T06:20:44.082Z,82.907
2023-04-12T06:21:44.617Z,82.859
2023-04-12T06:22:44.131Z,83.036
2023-04-12T06:23:44.749Z,83.105
2023-04-12T06:24:44.238Z,83.221
2023-04-12T06:25:44.724Z,83.124
2023-04-12T06:27:44.637Z,83.252
2023-04-12T06:28:44.080Z,83.622
2023-04-12T06:29:43.832Z,84.053
2023-04-12T06:30:44.358Z,83.965
2023-04-12T06:31:44.066Z,84.066
2023-04-12T06:32:44.137Z,84.446
2023-04-12T06:33:43.879Z,84.507
2023-04-12T06:34:44.317Z,84.465
2023-04-12T06:35:44.014Z,84.803
2023-04-12T06:36:44.018Z,84.736
2023-04-12T06:37:44.648Z,84.900
2023-04-12T06:38:44.059Z,85.304
2023-04-12T06:39:44.527Z,85.487
2023-04-12T06:40:44.043Z,85.310
2023-04-12T06:41:44.663Z,85.049
2023-04-12T06:42:44.229Z,85.321
2023-04-12T06:44:44.197Z,85.674
2023-04-12T06:45:44.728Z,85.968
2023-04-12T06:46:44.445Z,85.749
2023-04-12T06:47:44.150Z,85.775
2023-04-12T06:49:44.017Z,85.922
2023-04-12T06:50:44.620Z,86.021
2023-04-12T06:51:44.350Z,86.288
2023-04-12T06:52:44.079Z,86.281
2023-04-12T06:54:44.273Z,86.456
2023-04-12T06:55:43.828Z,86.294
2023-04-12T06:56:44.738Z,86.491
2023-04-12T06:59:44.462Z,86.638
2023-04-12T07:00:44.212Z,86.771
2023-04-12T07:02:45.236Z,86.975
2023-04-12T07:03:44.260Z,86.975
2023-04-12T07:05:44.807Z,87.067
2023-04-12T07:06:44.122Z,87.524
2023-04-12T07:07:44.650Z,86.988
2023-04-12T07:08:44.145Z,87.206
2023-04-12T07:09:43.803Z,87.273
2023-04-12T07:10:44.556Z,87.063
2023-04-12T07:12:47.713Z,86.836
2023-04-12T07:13:47.141Z,87.154
2023-04-12T07:14:47.660Z,87.280
2023-04-12T07:15:47.305Z,87.036
2023-04-12T07:16:47.293Z,87.248
2023-04-12T07:19:47.065Z,87.408
2023-04-12T07:20:47.922Z,87.339
2023-04-12T07:21:47.469Z,87.149
2023-04-12T07:24:47.206Z,87.164
2023-04-12T07:25:47.113Z,87.101
2023-04-12T07:26:47.701Z,87.090
2023-04-12T07:27:47.443Z,87.078
2023-04-12T07:28:47.649Z,86.887
2023-04-12T07:29:47.106Z,86.901
2023-04-12T07:30:47.695Z,86.851
2023-04-12T07:31:47.275Z,87.318
2023-04-12T07:32:47.041Z,87.467
2023-04-12T07:34:50.425Z,87.013
2023-04-12T07:35:49.922Z,86.805
2023-04-12T07:36:50.625Z,86.916
2023-04-12T07:37:50.057Z,86.523
2023-04-12T07:38:50.523Z,86.773
2023-04-12T07:39:50.120Z,86.981
2023-04-12T07:41:50.334Z,87.023
2023-04-12T07:42:50.108Z,86.760
2023-04-12T07:43:50.629Z,86.912
2023-04-12T07:46:50.620Z,87.412
2023-04-12T07:47:50.073Z,87.288
2023-04-12T07:48:50.650Z,87.185
2023-04-12T07:49:50.140Z,87.078
2023-04-12T07:50:50.688Z,87.353
2023-04-12T07:51:50.328Z,86.927
2023-04-12T07:52:49.874Z,86.931
2023-04-12T07:53:50.747Z,87.256
2023-04-12T07:54:50.770Z,87.431
2023-04-12T07:56:49.968Z,87.263
2023-04-12T07:57:53.024Z,87.236
2023-04-12T08:00:50.501Z,87.194
2023-04-12T08:01:50.039Z,86.924
2023-04-12T08:02:51.165Z,86.824
2023-04-12T08:03:50.809Z,87.093
2023-04-12T08:04:50.190Z,86.393
2023-04-12T08:06:52.723Z,86.245
2023-04-12T08:09:50.437Z,86.311
2023-04-12T08:10:50.069Z,86.576
2023-04-12T08:11:50.710Z,86.266
2023-04-12T08:12:50.173Z,86.439
2023-04-12T08:13:50.694Z,86.634
2023-04-12T08:14:50.155Z,86.611
2023-04-12T08:15:50.797Z,86.578
2023-04-12T08:16:50.501Z,86.880
2023-04-12T08:17:49.965Z,86.718
2023-04-12T08:18:50.863Z,86.266
2023-04-12T08:19:50.440Z,87.170
2023-04-12T08:20:49.934Z,86.794
2023-04-12T08:21:50.459Z,86.756
2023-04-12T08:22:49.861Z,86.716
2023-04-12T08:23:50.350Z,86.956
2023-04-12T08:24:49.932Z,86.514
2023-04-12T08:25:50.401Z,86.462
2023-04-12T08:26:49.930Z,86.693
2023-04-12T08:27:50.448Z,86.975
2023-04-12T08:28:50.001Z,86.868
2023-04-12T08:29:50.694Z,86.481
2023-04-12T08:30:50.202Z,85.987
2023-04-12T08:31:50.991Z,86.533
2023-04-12T08:32:50.425Z,86.433
2023-04-12T08:34:50.546Z,86.708
2023-04-12T08:35:50.348Z,86.199
2023-04-12T08:36:50.146Z,86.945
2023-04-12T08:37:50.698Z,86.956
2023-04-12T08:38:55.273Z,86.947
2023-04-12T08:40:50.236Z,87.404
2023-04-12T08:41:50.764Z,86.784
2023-04-12T08:42:50.211Z,87.116
2023-04-12T08:44:50.773Z,86.733
2023-04-12T08:45:50.284Z,86.575
2023-04-12T08:46:50.701Z,86.641
2023-04-12T08:47:50.324Z,86.079
2023-04-12T08:48:50.234Z,86.304
2023-04-12T08:49:50.739Z,86.771
2023-04-12T08:50:52.233Z,86.483
2023-04-12T08:51:50.063Z,86.943
2023-04-12T08:52:50.780Z,87.240
2023-04-12T08:53:50.393Z,87.086
2023-04-12T08:54:49.854Z,86.628
2023-04-12T08:55:50.423Z,86.290
2023-04-12T08:56:49.901Z,86.103
2023-04-12T08:57:50.825Z,86.563
2023-04-12T08:58:50.274Z,86.756
2023-04-12T08:59:49.878Z,86.741
2023-04-12T09:00:50.607Z,86.378
2023-04-12T09:03:53.122Z,86.525
2023-04-12T09:05:52.641Z,87.126
2023-04-12T09:08:50.217Z,87.000
2023-04-12T09:09:49.785Z,87.441
2023-04-12T09:10:50.245Z,87.618
2023-04-12T09:11:50.769Z,87.494
2023-04-12T09:12:52.858Z,87.603
2023-04-12T09:14:49.945Z,87.406
2023-04-12T09:15:50.516Z,87.288
2023-04-12T09:16:50.190Z,86.645
2023-04-12T09:17:49.950Z,87.444
2023-04-12T09:19:50.683Z,87.748
2023-04-12T09:20:50.262Z,87.618
2023-04-12T09:21:50.795Z,88.257
2023-04-12T09:22:50.299Z,88.079
2023-04-12T09:24:50.544Z,88.371
2023-04-12T09:25:50.133Z,88.675
2023-04-12T09:26:50.759Z,88.377
2023-04-12T09:27:50.408Z,88.516
2023-04-12T09:29:50.764Z,89.006
2023-04-12T09:30:50.338Z,88.404
2023-04-12T09:31:50.128Z,88.902
2023-04-12T09:32:50.588Z,87.946
2023-04-12T09:33:50.453Z,88.520
2023-04-12T09:34:50.096Z,88.423
2023-04-12T09:35:50.903Z,88.221
2023-04-12T09:36:50.652Z,89.138
2023-04-12T09:37:50.222Z,88.873
2023-04-12T09:38:50.760Z,88.757
2023-04-12T09:39:50.371Z,89.417
2023-04-12T09:40:50.133Z,89.439
2023-04-12T09:44:50.700Z,88.934
2023-04-12T09:45:50.381Z,89.407
2023-04-12T09:46:50.288Z,88.926
2023-04-12T09:49:50.114Z,88.886
2023-04-12T09:50:50.806Z,88.915
2023-04-12T09:51:50.431Z,89.182
2023-04-12T09:52:51.463Z,89.321
2023-04-12T09:53:50.090Z,89.489
2023-04-12T09:54:50.819Z,89.443
2023-04-12T09:55:50.465Z,89.710
2023-04-12T09:57:50.552Z,89.836
2023-04-12T09:58:50.032Z,89.573
2023-04-12T09:59:51.049Z,89.609
2023-04-12T10:00:50.637Z,89.621
2023-04-12T10:01:50.434Z,89.768
2023-04-12T10:02:53.398Z,89.344
2023-04-12T10:03:50.202Z,89.638
2023-04-12T10:04:50.691Z,90.096
2023-04-12T10:05:49.849Z,89.954
2023-04-12T10:06:50.399Z,89.361
2023-04-12T10:07:50.215Z,89.735
2023-04-12T10:08:50.835Z,89.796
2023-04-12T10:09:50.459Z,89.752
2023-04-12T10:10:50.023Z,89.596
2023-04-12T10:11:50.599Z,89.378
2023-04-12T10:13:50.600Z,88.814
2023-04-12T10:14:50.192Z,89.123
2023-04-12T10:15:50.775Z,89.184
2023-04-12T10:16:50.628Z,89.533
2023-04-12T10:18:49.973Z,89.630
2023-04-12T10:19:50.802Z,89.380
2023-04-12T10:20:50.272Z,89.470
2023-04-12T10:21:49.817Z,89.533
2023-04-12T10:22:50.369Z,89.647
2023-04-12T10:25:50.217Z,89.821
2023-04-12T10:26:50.830Z,89.748
2023-04-12T10:27:50.291Z,89.356
2023-04-12T10:28:49.876Z,89.644
2023-04-12T10:29:50.558Z,89.739
2023-04-12T10:30:50.228Z,89.560
2023-04-12T10:31:50.424Z,89.518
2023-04-12T10:34:50.135Z,89.550
2023-04-12T10:35:50.842Z,89.129
2023-04-12T10:36:50.732Z,88.879
2023-04-12T10:37:50.368Z,88.968
2023-04-12T10:39:50.605Z,88.182
2023-04-12T10:40:50.148Z,88.482
2023-04-12T10:41:50.775Z,88.917
2023-04-12T10:42:50.385Z,89.018
2023-04-12T10:44:50.496Z,89.426
2023-04-12T10:45:50.042Z,88.369
2023-04-12T10:46:49.976Z,89.203
2023-04-12T10:47:51.184Z,89.277
2023-04-12T10:48:49.935Z,89.291
2023-04-12T10:49:50.573Z,89.539
2023-04-12T10:50:50.181Z,89.626
2023-04-12T10:51:50.684Z,89.729
2023-04-12T10:52:50.257Z,89.481
2023-04-12T10:55:49.948Z,89.115
2023-04-12T10:56:51.485Z,88.600
2023-04-12T10:57:49.932Z,88.368
2023-04-12T10:58:50.867Z,88.736
2023-04-12T10:59:50.060Z,88.833
2023-04-12T11:00:51.267Z,88.450
2023-04-12T11:01:50.712Z,88.047
2023-04-12T11:02:50.752Z,88.287
2023-04-12T11:03:50.491Z,88.074
2023-04-12T11:04:50.594Z,88.747
2023-04-12T11:05:50.481Z,87.429
2023-04-12T11:07:53.687Z,88.659
2023-04-12T11:08:53.334Z,88.665
2023-04-12T11:09:52.839Z,88.430
2023-04-12T11:10:53.511Z,88.802
2023-04-12T11:11:53.060Z,88.993
2023-04-12T11:12:52.887Z,89.199
2023-04-12T11:13:53.559Z,89.060
2023-04-12T11:14:53.027Z,88.482
2023-04-12T11:15:53.677Z,88.755
2023-04-12T11:16:53.598Z,89.068
2023-04-12T11:17:53.683Z,89.541
2023-04-12T11:19:52.968Z,89.066
2023-04-12T11:20:53.557Z,89.352
2023-04-12T11:21:53.186Z,89.335
2023-04-12T11:22:53.696Z,89.657
2023-04-12T11:23:53.338Z,89.939
2023-04-12T11:25:53.585Z,90.002
2023-04-12T11:26:53.153Z,89.821
2023-04-12T11:27:53.631Z,89.678
2023-04-12T11:29:56.786Z,89.979
2023-04-12T11:30:56.403Z,90.233
2023-04-12T11:31:56.216Z,90.105
2023-04-12T11:32:56.075Z,89.768
2023-04-12T11:33:56.068Z,89.554
2023-04-12T11:34:56.702Z,89.798
2023-04-12T11:35:56.180Z,88.852
2023-04-12T11:36:56.744Z,89.151
2023-04-12T11:37:56.325Z,89.169
2023-04-12T11:38:55.959Z,89.006
2023-04-12T11:39:55.863Z,89.304
2023-04-12T11:40:56.736Z,89.266
2023-04-12T11:41:56.330Z,89.285
2023-04-12T11:42:55.860Z,88.928
2023-04-12T11:43:56.382Z,89.115
2023-04-12T11:45:56.268Z,89.087
2023-04-12T11:46:55.878Z,89.550
2023-04-12T11:47:56.596Z,90.065
2023-04-12T11:48:56.863Z,89.996
2023-04-12T11:49:56.460Z,89.342
2023-04-12T11:51:10.669Z,89.579
2023-04-12T11:52:55.786Z,89.714
2023-04-12T11:53:56.622Z,89.239
2023-04-12T11:54:56.217Z,88.930
2023-04-12T11:55:56.696Z,88.982
2023-04-12T11:56:56.326Z,88.661
2023-04-12T11:57:55.725Z,88.978
2023-04-12T11:58:56.236Z,88.568
2023-04-12T11:59:55.876Z,88.375
2023-04-12T12:00:56.601Z,88.366
2023-04-12T12:01:56.242Z,88.797
2023-04-12T12:03:56.865Z,89.172
2023-04-12T12:04:56.770Z,89.403
2023-04-12T12:05:57.606Z,89.655
2023-04-12T12:06:57.450Z,89.516
2023-04-12T12:07:56.559Z,88.953
2023-04-12T12:11:07.611Z,89.369
2023-04-12T12:12:56.435Z,89.258
2023-04-12T12:13:56.029Z,89.125
2023-04-12T12:14:56.523Z,89.394
2023-04-12T12:15:56.124Z,89.834
2023-04-12T12:16:55.782Z,89.716
2023-04-12T12:17:56.448Z,90.031
2023-04-12T12:20:56.380Z,90.170
2023-04-12T12:21:55.919Z,89.829
2023-04-12T12:22:56.421Z,90.361
2023-04-12T12:26:56.292Z,90.021
2023-04-12T12:27:56.966Z,89.720
2023-04-12T12:28:55.980Z,89.899
2023-04-12T12:29:56.625Z,89.651
2023-04-12T12:30:56.327Z,89.865
2023-04-12T12:34:02.277Z,89.510
2023-04-12T12:35:55.979Z,89.903
2023-04-12T12:36:56.811Z,90.050
2023-04-12T12:38:57.160Z,89.504
2023-04-12T12:39:56.295Z,89.003
2023-04-12T12:40:56.056Z,89.563
2023-04-12T12:41:56.620Z,89.052
2023-04-12T12:43:57.015Z,89.174
2023-04-12T12:44:55.845Z,88.980
2023-04-12T12:45:56.422Z,88.095
2023-04-12T12:47:03.247Z,89.417
2023-04-12T12:47:57.087Z,89.586
2023-04-12T12:48:56.705Z,89.014
2023-04-12T12:49:56.352Z,89.001
2023-04-12T12:50:55.819Z,89.132
2023-04-12T12:51:56.365Z,89.157
2023-04-12T12:52:56.022Z,89.138
2023-04-12T12:53:56.603Z,89.029
2023-04-12T12:55:00.106Z,89.048
2023-04-12T12:56:56.345Z,89.758
2023-04-12T12:58:59.927Z,89.512
2023-04-12T13:00:56.184Z,89.878
2023-04-12T13:01:57.067Z,89.453
2023-04-12T13:02:56.197Z,89.630
2023-04-12T13:03:56.536Z,89.758
2023-04-12T13:04:57.104Z,89.790
2023-04-12T13:05:56.470Z,89.743
2023-04-12T13:06:56.081Z,89.695
2023-04-12T13:07:56.665Z,89.743
2023-04-12T13:09:56.759Z,89.754
2023-04-12T13:10:56.306Z,90.086
2023-04-12T13:11:56.709Z,89.613
2023-04-12T13:12:56.250Z,89.607
2023-04-12T13:15:13.223Z,89.031
2023-04-12T13:16:58.728Z,89.100
2023-04-12T13:17:58.475Z,89.340
2023-04-12T13:18:58.598Z,89.428
2023-04-12T13:20:57.944Z,89.802
2023-04-12T13:21:58.581Z,89.462
2023-04-12T13:22:58.114Z,89.781
2023-04-12T13:23:58.796Z,90.094
2023-04-12T13:24:58.309Z,90.532
2023-04-12T13:25:57.833Z,91.024
2023-04-12T13:26:58.653Z,90.769
2023-04-12T13:27:58.406Z,90.973
2023-04-12T13:28:58.729Z,91.332
2023-04-12T13:30:57.910Z,90.576
2023-04-12T13:31:59.087Z,90.706
2023-04-12T13:33:58.728Z,90.378
2023-04-12T13:34:58.268Z,90.023
2023-04-12T13:35:57.816Z,90.153
2023-04-12T13:36:58.352Z,90.384
2023-04-12T13:37:57.865Z,90.401
2023-04-12T13:38:58.873Z,90.353
2023-04-12T13:40:58.029Z,90.382
2023-04-12T13:41:58.557Z,90.117
2023-04-12T13:42:58.056Z,89.605
2023-04-12T13:43:58.631Z,89.558
2023-04-12T13:44:58.152Z,89.399
2023-04-12T13:45:58.732Z,89.077
2023-04-12T13:46:58.541Z,89.386
2023-04-12T13:48:58.108Z,88.905
2023-04-12T13:49:58.669Z,89.466
2023-04-12T13:50:58.117Z,88.751
2023-04-12T13:51:58.657Z,89.228
2023-04-12T13:52:58.240Z,89.171
2023-04-12T13:53:57.809Z,89.212
2023-04-12T13:54:58.332Z,89.443
2023-04-12T13:55:58.123Z,89.193
2023-04-12T13:56:58.659Z,88.905
2023-04-12T13:57:58.225Z,88.524
2023-04-12T13:58:57.920Z,88.450
2023-04-12T13:59:58.561Z,88.305
2023-04-12T14:00:58.072Z,88.131
2023-04-12T14:01:58.981Z,88.005
2023-04-12T14:02:59.200Z,87.750
2023-04-12T14:03:58.043Z,87.765
2023-04-12T14:04:58.882Z,87.748
2023-04-12T14:05:58.392Z,87.816
2023-04-12T14:07:58.613Z,87.551
2023-04-12T14:08:58.327Z,87.326
2023-04-12T14:10:58.498Z,87.345
2023-04-12T14:11:58.145Z,87.065
2023-04-12T14:12:58.658Z,87.162
2023-04-12T14:13:58.161Z,87.311
2023-04-12T14:14:58.733Z,87.101
2023-04-12T14:15:58.173Z,86.943
2023-04-12T14:16:59.041Z,86.815
2023-04-12T14:17:58.204Z,86.508
2023-04-12T14:18:58.477Z,86.824
2023-04-12T14:19:57.978Z,86.607
2023-04-12T14:20:57.868Z,86.742
2023-04-12T14:21:58.368Z,87.040
2023-04-12T14:23:59.081Z,85.764
2023-04-12T14:25:58.381Z,86.130
2023-04-12T14:26:57.867Z,85.625
2023-04-12T14:27:58.045Z,85.386
2023-04-12T14:28:59.087Z,85.888
2023-04-12T14:29:57.842Z,85.823
2023-04-12T14:30:57.986Z,85.779
2023-04-12T14:31:58.761Z,86.000
2023-04-12T14:32:58.294Z,86.271
2023-04-12T14:33:58.265Z,86.231
2023-04-12T14:35:58.662Z,86.149